createdAt,value
2023-01-28T00:00:14.481Z,103026.85
2023-01-28T00:02:43.782Z,103032.05
2023-01-28T00:05:13.406Z,103022.50
2023-01-28T00:07:42.828Z,103024.70
2023-01-28T00:10:12.430Z,103030.34
2023-01-28T00:12:41.673Z,103025.55
2023-01-28T00:15:12.046Z,103029.52
2023-01-28T00:17:41.529Z,103029.91
2023-01-28T00:20:11.854Z,103026.94
2023-01-28T00:22:41.167Z,103019.19
2023-01-28T00:25:10.800Z,103023.50
2023-01-28T00:27:40.029Z,103033.00
2023-01-28T00:30:10.383Z,103032.59
2023-01-28T00:32:39.620Z,103033.89
2023-01-28T00:35:09.542Z,103042.12
2023-01-28T00:37:38.957Z,103041.24
2023-01-28T00:40:10.163Z,103037.43
2023-01-28T00:42:39.376Z,103036.13
2023-01-28T00:45:09.432Z,103036.53
2023-01-28T00:47:38.716Z,103037.43
2023-01-28T00:50:09.364Z,103045.25
2023-01-28T00:52:39.177Z,103045.66
2023-01-28T00:55:09.408Z,103045.66
2023-01-28T00:57:38.672Z,103044.79
2023-01-28T01:00:09.028Z,103047.02
2023-01-28T01:02:40.880Z,103045.64
2023-01-28T01:05:10.122Z,103047.00
2023-01-28T01:07:42.472Z,103040.89
2023-01-28T01:10:14.234Z,103041.80
2023-01-28T01:12:43.611Z,103037.92
2023-01-28T01:15:13.675Z,103036.20
2023-01-28T01:17:44.992Z,103035.69
2023-01-28T01:20:19.389Z,103040.01
2023-01-28T01:22:49.009Z,103037.92
2023-01-28T01:25:19.761Z,103035.28
2023-01-28T01:27:50.703Z,103037.14
2023-01-28T01:30:20.580Z,103034.11
2023-01-28T01:32:50.206Z,103030.21
2023-01-28T01:35:19.824Z,103034.48
2023-01-28T01:37:49.191Z,103026.27
2023-01-28T01:40:18.707Z,103030.64
2023-01-28T01:42:48.260Z,103021.95
2023-01-28T01:45:18.048Z,103027.61
2023-01-28T01:47:58.707Z,103023.31
2023-01-28T01:50:31.255Z,103032.41
2023-01-28T01:53:03.643Z,103033.32
2023-01-28T01:55:37.644Z,103035.49
2023-01-28T01:58:09.096Z,103033.71
2023-01-28T02:00:38.361Z,103031.59
2023-01-28T02:03:07.584Z,103040.23
2023-01-28T02:05:38.653Z,103043.78
2023-01-28T02:08:23.886Z,103044.70
2023-01-28T02:11:04.246Z,103052.88
2023-01-28T02:13:39.650Z,103059.00
2023-01-28T02:16:10.466Z,103057.73
2023-01-28T02:18:39.960Z,103049.52
2023-01-28T02:21:29.509Z,103046.53
2023-01-28T02:24:20.087Z,103046.47
2023-01-28T02:26:58.850Z,103039.52
2023-01-28T02:29:34.217Z,103038.75
2023-01-28T02:32:23.011Z,103036.10
2023-01-28T02:34:55.764Z,103034.44
2023-01-28T02:37:28.420Z,103032.73
2023-01-28T02:40:04.301Z,103034.44
2023-01-28T02:42:36.065Z,103045.19
2023-01-28T02:45:14.554Z,103037.50
2023-01-28T02:47:59.686Z,103046.61
2023-01-28T02:50:32.263Z,103044.81
2023-01-28T02:53:38.348Z,103050.05
2023-01-28T02:56:31.973Z,103044.87
2023-01-28T02:59:34.162Z,103047.46
2023-01-28T03:02:31.356Z,103049.70
2023-01-28T03:05:16.392Z,103057.91
2023-01-28T03:07:46.286Z,103060.48
2023-01-28T03:10:18.658Z,103056.59
2023-01-28T03:13:08.818Z,103054.03
2023-01-28T03:16:07.440Z,103052.70
2023-01-28T03:19:06.536Z,103055.77
2023-01-28T03:22:00.096Z,103057.50
2023-01-28T03:24:54.767Z,103060.45
2023-01-28T03:27:45.056Z,103060.45
2023-01-28T03:30:38.142Z,103060.97
2023-01-28T03:33:27.085Z,103061.38
2023-01-28T03:36:14.408Z,103067.91
2023-01-28T03:38:46.213Z,103058.81
2023-01-28T03:41:24.219Z,103061.39
2023-01-28T03:43:54.993Z,103061.84
2023-01-28T03:46:24.538Z,103067.09
2023-01-28T03:48:54.897Z,103070.06
2023-01-28T03:51:24.189Z,103069.61
2023-01-28T03:53:54.631Z,103072.22
2023-01-28T03:56:24.621Z,103070.95
2023-01-28T03:58:56.680Z,103073.12
2023-01-28T04:01:26.462Z,103073.12
2023-01-28T04:03:55.727Z,103072.28
2023-01-28T04:06:26.938Z,103069.30
2023-01-28T04:09:00.827Z,103072.33
2023-01-28T04:11:34.676Z,103077.95
2023-01-28T04:14:05.704Z,103080.59
2023-01-28T04:16:39.888Z,103077.97
2023-01-28T04:19:09.776Z,103084.89
2023-01-28T04:21:39.217Z,103082.66
2023-01-28T04:24:08.914Z,103077.52
2023-01-28T04:26:38.326Z,103082.30
2023-01-28T04:29:07.905Z,103074.53
2023-01-28T04:31:38.634Z,103075.36
2023-01-28T04:34:20.125Z,103074.53
2023-01-28T04:36:54.014Z,103079.27
2023-01-28T04:39:27.946Z,103079.68
2023-01-28T04:42:01.933Z,103081.81
2023-01-28T04:44:51.356Z,103085.75
2023-01-28T04:47:22.576Z,103091.45
2023-01-28T04:49:53.504Z,103094.03
2023-01-28T04:52:30.673Z,103099.66
2023-01-28T04:55:04.572Z,103097.95
2023-01-28T04:57:34.025Z,103101.42
2023-01-28T05:00:05.687Z,103098.86
2023-01-28T05:02:34.978Z,103104.02
2023-01-28T05:05:06.692Z,103100.13
2023-01-28T05:07:48.822Z,103091.47
2023-01-28T05:10:19.504Z,103087.59
2023-01-28T05:12:49.980Z,103090.19
2023-01-28T05:15:20.958Z,103085.01
2023-01-28T05:17:50.789Z,103084.07
2023-01-28T05:20:22.111Z,103084.52
2023-01-28T05:22:51.958Z,103077.20
2023-01-28T05:25:23.215Z,103078.40
2023-01-28T05:27:53.339Z,103081.85
2023-01-28T05:30:23.333Z,103081.05
2023-01-28T05:32:57.189Z,103082.38
2023-01-28T05:35:27.000Z,103084.07
2023-01-28T05:37:56.374Z,103077.20
2023-01-28T05:40:25.779Z,103084.09
2023-01-28T05:42:55.177Z,103088.82
2023-01-28T05:45:32.470Z,103087.11
2023-01-28T05:48:16.521Z,103094.05
2023-01-28T05:50:51.053Z,103090.61
2023-01-28T05:53:22.220Z,103093.63
2023-01-28T05:55:53.587Z,103093.62
2023-01-28T05:58:24.176Z,103084.11
2023-01-28T06:00:56.721Z,103085.80
2023-01-28T06:03:27.608Z,103087.52
2023-01-28T06:05:58.399Z,103082.36
2023-01-28T06:08:27.582Z,103087.13
2023-01-28T06:10:57.308Z,103081.92
2023-01-28T06:13:26.873Z,103078.91
2023-01-28T06:16:16.376Z,103074.60
2023-01-28T06:18:47.425Z,103086.23
2023-01-28T06:21:16.692Z,103078.09
2023-01-28T06:23:46.072Z,103087.62
2023-01-28T06:26:15.637Z,103088.89
2023-01-28T06:28:46.693Z,103088.08
2023-01-28T06:31:16.458Z,103089.33
2023-01-28T06:33:46.253Z,103088.03
2023-01-28T06:36:16.169Z,103090.21
2023-01-28T06:38:45.469Z,103093.67
2023-01-28T06:41:14.686Z,103086.80
2023-01-28T06:43:43.899Z,103086.80
2023-01-28T06:46:13.372Z,103089.39
2023-01-28T06:48:42.770Z,103091.95
2023-01-28T06:51:12.396Z,103088.45
2023-01-28T06:53:41.610Z,103091.95
2023-01-28T06:56:11.235Z,103098.91
2023-01-28T06:58:40.447Z,103091.56
2023-01-28T07:01:09.716Z,103106.28
2023-01-28T07:03:38.963Z,103107.14
2023-01-28T07:06:08.527Z,103108.01
2023-01-28T07:08:38.075Z,103118.42
2023-01-28T07:11:07.796Z,103125.88
2023-01-28T07:13:37.091Z,103125.87
2023-01-28T07:16:07.127Z,103127.17
2023-01-28T07:18:36.411Z,103124.16
2023-01-28T07:21:06.040Z,103124.56
2023-01-28T07:23:35.276Z,103125.88
2023-01-28T07:26:06.035Z,103137.96
2023-01-28T07:28:35.247Z,103143.98
2023-01-28T07:31:04.863Z,103135.78
2023-01-28T07:33:34.298Z,103128.03
2023-01-28T07:36:03.618Z,103132.75
2023-01-28T07:38:32.936Z,103134.08
2023-01-28T07:41:02.477Z,103132.37
2023-01-28T07:43:31.988Z,103144.46
2023-01-28T07:46:04.600Z,103142.24
2023-01-28T07:48:33.989Z,103146.58
2023-01-28T07:51:03.207Z,103141.41
2023-01-28T07:53:32.455Z,103148.30
2023-01-28T07:56:02.709Z,103151.26
2023-01-28T07:58:34.592Z,103151.72
2023-01-28T08:01:04.542Z,103157.78
2023-01-28T08:03:34.727Z,103161.22
2023-01-28T08:06:04.123Z,103157.78
2023-01-28T08:08:33.712Z,103160.81
2023-01-28T08:11:11.835Z,103165.63
2023-01-28T08:13:41.063Z,103162.09
2023-01-28T08:16:10.702Z,103169.02
2023-01-28T08:18:40.031Z,103166.40
2023-01-28T08:21:09.368Z,103168.53
2023-01-28T08:23:38.618Z,103163.33
2023-01-28T08:26:07.941Z,103173.31
2023-01-28T08:28:37.554Z,103173.28
2023-01-28T08:31:07.394Z,103173.23
2023-01-28T08:33:37.292Z,103177.58
2023-01-28T08:36:07.442Z,103166.29
2023-01-28T08:38:36.771Z,103171.48
2023-01-28T08:41:06.176Z,103178.79
2023-01-28T08:43:35.366Z,103181.34
2023-01-28T08:46:08.051Z,103196.53
2023-01-28T08:48:38.507Z,103192.17
2023-01-28T08:51:08.553Z,103201.66
2023-01-28T08:53:37.792Z,103202.52
2023-01-28T08:56:07.761Z,103193.42
2023-01-28T08:58:37.131Z,103188.67
2023-01-28T09:01:07.215Z,103190.77
2023-01-28T09:03:36.556Z,103193.33
2023-01-28T09:06:06.779Z,103201.53
2023-01-28T09:08:36.019Z,103207.22
2023-01-28T09:11:05.836Z,103209.92
2023-01-28T09:13:35.154Z,103218.92
2023-01-28T09:16:06.713Z,103220.72
2023-01-28T09:18:36.042Z,103223.25
2023-01-28T09:21:09.960Z,103217.57
2023-01-28T09:23:39.947Z,103224.52
2023-01-28T09:26:09.881Z,103230.98
2023-01-28T09:28:40.220Z,103235.81
2023-01-28T09:31:12.400Z,103239.64
2023-01-28T09:33:42.231Z,103233.56
2023-01-28T09:36:12.473Z,103238.80
2023-01-28T09:38:41.655Z,103236.22
2023-01-28T09:41:14.201Z,103243.05
2023-01-28T09:43:47.283Z,103240.39
2023-01-28T09:46:18.511Z,103241.66
2023-01-28T09:48:51.226Z,103243.27
2023-01-28T09:51:30.209Z,103238.91
2023-01-28T09:54:02.599Z,103240.63
2023-01-28T09:56:35.210Z,103255.69
2023-01-28T09:59:07.631Z,103247.55
2023-01-28T10:01:46.017Z,103235.59
2023-01-28T10:04:23.320Z,103240.44
2023-01-28T10:07:04.749Z,103242.55
2023-01-28T10:10:00.744Z,103237.52
2023-01-28T10:12:42.175Z,103232.33
2023-01-28T10:15:30.039Z,103235.14
2023-01-28T10:18:16.404Z,103241.43
2023-01-28T10:20:41.124Z,103246.37
2023-01-28T10:23:22.494Z,103245.70
2023-01-28T10:25:52.274Z,103248.80
2023-01-28T10:28:26.786Z,103250.64
2023-01-28T10:30:56.624Z,103253.94
2023-01-28T10:33:40.009Z,103247.18
2023-01-28T10:36:10.892Z,103248.64
2023-01-28T10:38:40.275Z,103233.47
2023-01-28T10:41:11.136Z,103243.91
2023-01-28T10:43:43.791Z,103233.88
2023-01-28T10:46:18.462Z,103232.23
2023-01-28T10:49:07.718Z,103233.23
2023-01-28T10:51:42.327Z,103229.16
2023-01-28T10:54:23.239Z,103233.23
2023-01-28T10:56:54.888Z,103226.41
2023-01-28T10:59:32.685Z,103222.91
2023-01-28T11:02:07.314Z,103213.09
2023-01-28T11:04:38.045Z,103217.26
2023-01-28T11:07:10.105Z,103218.09
2023-01-28T11:09:39.872Z,103212.30
2023-01-28T11:12:27.523Z,103197.07
2023-01-28T11:15:02.040Z,103202.19
2023-01-28T11:17:35.926Z,103212.48
2023-01-28T11:20:20.534Z,103204.62
2023-01-28T11:22:50.431Z,103203.01
2023-01-28T11:25:31.952Z,103194.47
2023-01-28T11:28:03.191Z,103198.15
2023-01-28T11:30:34.758Z,103180.34
2023-01-28T11:33:18.135Z,103173.10
2023-01-28T11:35:59.684Z,103164.87
2023-01-28T11:38:29.146Z,103150.05
2023-01-28T11:41:01.299Z,103148.87
2023-01-28T11:43:32.220Z,103146.84
2023-01-28T11:46:05.384Z,103138.89
2023-01-28T11:48:44.581Z,103127.51
2023-01-28T11:51:31.892Z,103106.70
2023-01-28T11:54:24.074Z,103097.72
2023-01-28T11:57:08.604Z,103103.45
2023-01-28T11:59:46.894Z,103114.85
2023-01-28T12:02:31.210Z,103098.44
2023-01-28T12:05:22.015Z,103111.72
2023-01-28T12:07:56.974Z,103112.85
2023-01-28T12:10:41.491Z,103115.11
2023-01-28T12:13:28.829Z,103115.36
2023-01-28T12:16:03.951Z,103117.39
2023-01-28T12:18:39.112Z,103125.94
2023-01-28T12:21:17.504Z,103127.19
2023-01-28T12:24:01.734Z,103141.11
2023-01-28T12:26:55.859Z,103148.84
2023-01-28T12:29:47.643Z,103158.47
2023-01-28T12:32:40.694Z,103153.80
2023-01-28T12:35:32.507Z,103141.64
2023-01-28T12:38:08.173Z,103147.85
2023-01-28T12:40:49.580Z,103149.48
2023-01-28T12:43:25.606Z,103149.31
2023-01-28T12:46:01.100Z,103149.25
2023-01-28T12:48:42.035Z,103154.28
2023-01-28T12:51:36.754Z,103157.12
2023-01-28T12:54:09.231Z,103160.25
2023-01-28T12:56:41.663Z,103161.76
2023-01-28T12:59:22.979Z,103157.31
2023-01-28T13:02:16.411Z,103153.22
2023-01-28T13:04:54.564Z,103151.11
2023-01-28T13:07:42.581Z,103146.84
2023-01-28T13:10:24.217Z,103143.55
2023-01-28T13:12:53.764Z,103123.75
2023-01-28T13:15:24.238Z,103121.73
2023-01-28T13:17:59.814Z,103117.89
2023-01-28T13:20:50.271Z,103108.55
2023-01-28T13:23:46.479Z,103102.77
2023-01-28T13:26:25.316Z,103093.02
2023-01-28T13:28:55.983Z,103091.28
2023-01-28T13:31:25.878Z,103086.59
2023-01-28T13:33:58.264Z,103079.58
2023-01-28T13:36:30.120Z,103071.13
2023-01-28T13:39:14.536Z,103070.27
2023-01-28T13:41:47.646Z,103059.38
2023-01-28T13:44:28.578Z,103060.80
2023-01-28T13:47:11.149Z,103065.69
2023-01-28T13:49:49.679Z,103064.77
2023-01-28T13:52:31.896Z,103071.97
2023-01-28T13:55:06.994Z,103075.57
2023-01-28T13:57:45.846Z,103076.59
2023-01-28T14:00:26.576Z,103069.86
2023-01-28T14:03:18.191Z,103085.63
2023-01-28T14:06:11.544Z,103082.77
2023-01-28T14:09:08.546Z,103089.02
2023-01-28T14:12:01.726Z,103100.45
2023-01-28T14:14:37.248Z,103094.71
2023-01-28T14:17:38.446Z,103098.09
2023-01-28T14:20:11.463Z,103095.32
2023-01-28T14:22:42.931Z,103092.61
2023-01-28T14:25:18.454Z,103093.75
2023-01-28T14:27:51.041Z,103091.31
2023-01-28T14:30:27.895Z,103093.92
2023-01-28T14:32:57.475Z,103094.90
2023-01-28T14:35:34.921Z,103099.86
2023-01-28T14:38:09.257Z,103097.26
2023-01-28T14:40:40.151Z,103111.43
2023-01-28T14:43:12.728Z,103108.17
2023-01-28T14:45:49.025Z,103108.67
2023-01-28T14:48:46.849Z,103108.70
2023-01-28T14:51:30.272Z,103105.78
2023-01-28T14:54:21.860Z,103099.30
2023-01-28T14:57:12.733Z,103097.82
2023-01-28T14:59:49.762Z,103087.02
2023-01-28T15:02:22.507Z,103081.09
2023-01-28T15:04:52.692Z,103086.00
2023-01-28T15:07:27.913Z,103089.88
2023-01-28T15:10:05.797Z,103111.56
2023-01-28T15:12:40.069Z,103098.20
2023-01-28T15:15:25.056Z,103094.79
2023-01-28T15:17:54.729Z,103097.42
2023-01-28T15:20:25.773Z,103096.63
2023-01-28T15:22:55.694Z,103102.66
2023-01-28T15:25:27.364Z,103116.23
2023-01-28T15:27:59.148Z,103117.25
2023-01-28T15:30:31.371Z,103136.91
2023-01-28T15:33:17.282Z,103136.54
2023-01-28T15:35:50.215Z,103130.61
2023-01-28T15:38:19.899Z,103120.63
2023-01-28T15:41:03.350Z,103125.09
2023-01-28T15:43:35.091Z,103134.21
2023-01-28T15:46:05.343Z,103139.09
2023-01-28T15:48:36.181Z,103143.19
2023-01-28T15:51:10.902Z,103157.11
2023-01-28T15:53:45.514Z,103173.14
2023-01-28T15:56:16.345Z,103172.80
2023-01-28T15:58:46.233Z,103167.19
2023-01-28T16:01:17.165Z,103152.02
2023-01-28T16:03:48.081Z,103148.13
2023-01-28T16:06:22.567Z,103136.47
2023-01-28T16:08:59.594Z,103132.20
2023-01-28T16:11:34.533Z,103136.10
2023-01-28T16:14:04.224Z,103130.02
2023-01-28T16:16:36.100Z,103127.94
2023-01-28T16:19:07.835Z,103136.64
2023-01-28T16:21:39.928Z,103157.03
2023-01-28T16:24:31.735Z,103155.18
2023-01-28T16:27:09.927Z,103152.83
2023-01-28T16:29:39.580Z,103145.37
2023-01-28T16:32:12.167Z,103151.03
2023-01-28T16:34:42.319Z,103160.09
2023-01-28T16:37:11.794Z,103152.20
2023-01-28T16:39:41.019Z,103137.45
2023-01-28T16:42:10.330Z,103132.27
2023-01-28T16:44:39.532Z,103133.20
2023-01-28T16:47:09.489Z,103148.82
2023-01-28T16:49:39.941Z,103142.72
2023-01-28T16:52:10.431Z,103138.81
2023-01-28T16:54:41.403Z,103141.87
2023-01-28T16:57:12.359Z,103146.62
2023-01-28T16:59:41.582Z,103138.83
2023-01-28T17:02:15.678Z,103146.62
2023-01-28T17:04:45.689Z,103144.03
2023-01-28T17:07:14.915Z,103147.45
2023-01-28T17:09:44.298Z,103154.83
2023-01-28T17:12:13.513Z,103156.58
2023-01-28T17:14:43.012Z,103159.91
2023-01-28T17:17:12.268Z,103152.82
2023-01-28T17:19:41.953Z,103151.97
2023-01-28T17:22:11.147Z,103155.48
2023-01-28T17:24:40.529Z,103155.55
2023-01-28T17:27:09.805Z,103162.53
2023-01-28T17:29:39.615Z,103164.78
2023-01-28T17:32:08.862Z,103168.09
2023-01-28T17:34:38.387Z,103165.95
2023-01-28T17:37:07.875Z,103164.22
2023-01-28T17:39:37.348Z,103158.56
2023-01-28T17:42:06.932Z,103159.91
2023-01-28T17:44:36.143Z,103164.22
2023-01-28T17:47:05.518Z,103150.44
2023-01-28T17:49:34.725Z,103163.89
2023-01-28T17:52:04.790Z,103154.41
2023-01-28T17:54:35.689Z,103147.83
2023-01-28T17:57:05.081Z,103149.20
2023-01-28T17:59:34.331Z,103148.78
2023-01-28T18:02:05.456Z,103151.44
2023-01-28T18:04:39.923Z,103155.27
2023-01-28T18:07:12.851Z,103155.71
2023-01-28T18:09:45.887Z,103152.72
2023-01-28T18:12:16.410Z,103163.48
2023-01-28T18:14:45.760Z,103169.48
2023-01-28T18:17:15.561Z,103168.73
2023-01-28T18:19:44.879Z,103176.11
2023-01-28T18:22:14.044Z,103182.61
2023-01-28T18:24:43.512Z,103177.02
2023-01-28T18:27:12.720Z,103177.02
2023-01-28T18:29:42.290Z,103181.86
2023-01-28T18:32:11.554Z,103189.33
2023-01-28T18:34:41.080Z,103194.61
2023-01-28T18:37:10.278Z,103204.13
2023-01-28T18:39:39.810Z,103194.12
2023-01-28T18:42:09.179Z,103195.42
2023-01-28T18:44:38.531Z,103207.20
2023-01-28T18:47:07.756Z,103211.15
2023-01-28T18:49:37.263Z,103206.82
2023-01-28T18:52:06.584Z,103214.24
2023-01-28T18:54:35.919Z,103211.61
2023-01-28T18:57:05.882Z,103210.73
2023-01-28T18:59:35.368Z,103206.45
2023-01-28T19:02:04.917Z,103202.58
2023-01-28T19:04:34.219Z,103209.98
2023-01-28T19:07:07.166Z,103207.38
2023-01-28T19:09:35.555Z,103203.06
2023-01-28T19:12:05.695Z,103196.97
2023-01-28T19:14:35.159Z,103200.49
2023-01-28T19:17:04.481Z,103202.68
2023-01-28T19:19:33.724Z,103199.70
2023-01-28T19:22:04.958Z,103192.33
2023-01-28T19:24:35.233Z,103189.33
2023-01-28T19:27:04.904Z,103191.08
2023-01-28T19:29:34.221Z,103189.36
2023-01-28T19:32:04.703Z,103191.97
2023-01-28T19:34:33.915Z,103184.14
2023-01-28T19:37:03.186Z,103188.91
2023-01-28T19:39:32.483Z,103190.67
2023-01-28T19:42:02.443Z,103195.42
2023-01-28T19:44:32.706Z,103202.77
2023-01-28T19:47:02.569Z,103203.66
2023-01-28T19:49:31.968Z,103213.63
2023-01-28T19:52:01.664Z,103211.02
2023-01-28T19:54:30.902Z,103207.91
2023-01-28T19:57:00.540Z,103214.44
2023-01-28T19:59:29.794Z,103208.42
2023-01-28T20:01:59.267Z,103194.14
2023-01-28T20:04:28.502Z,103197.56
2023-01-28T20:06:57.952Z,103199.38
2023-01-28T20:09:27.354Z,103198.48
2023-01-28T20:11:56.828Z,103183.78
2023-01-28T20:14:28.309Z,103175.63
2023-01-28T20:16:59.504Z,103183.03
2023-01-28T20:19:28.951Z,103176.98
2023-01-28T20:21:58.786Z,103184.36
2023-01-28T20:24:28.123Z,103189.55
2023-01-28T20:26:58.078Z,103170.64
2023-01-28T20:29:27.449Z,103197.32
2023-01-28T20:32:13.693Z,103199.02
2023-01-28T20:34:27.853Z,103200.68
2023-01-28T20:36:57.556Z,103199.84
2023-01-28T20:39:26.894Z,103194.19
2023-01-28T20:41:56.213Z,103196.73
2023-01-28T20:44:26.991Z,103186.28
2023-01-28T20:46:56.218Z,103184.05
2023-01-28T20:49:28.112Z,103180.66
2023-01-28T20:51:57.224Z,103182.78
2023-01-28T20:54:26.662Z,103179.78
2023-01-28T20:56:57.369Z,103181.55
2023-01-28T20:59:27.841Z,103173.72
2023-01-28T21:01:57.070Z,103177.94
2023-01-28T21:04:26.664Z,103176.27
2023-01-28T21:06:55.913Z,103180.59
2023-01-28T21:09:27.332Z,103175.00
2023-01-28T21:11:56.579Z,103171.11
2023-01-28T21:14:26.325Z,103168.45
2023-01-28T21:16:55.629Z,103167.59
2023-01-28T21:19:25.284Z,103168.55
2023-01-28T21:21:54.906Z,103177.23
2023-01-28T21:24:24.250Z,103175.11
2023-01-28T21:26:53.522Z,103173.37
2023-01-28T21:29:22.948Z,103175.14
2023-01-28T21:31:52.288Z,103173.38
2023-01-28T21:34:24.049Z,103172.97
2023-01-28T21:36:53.528Z,103170.38
2023-01-28T21:39:23.090Z,103172.95
2023-01-28T21:41:52.349Z,103169.88
2023-01-28T21:44:22.276Z,103173.84
2023-01-28T21:46:51.466Z,103175.17
2023-01-28T21:49:20.785Z,103178.22
2023-01-28T21:51:50.013Z,103170.44
2023-01-28T21:54:20.888Z,103167.39
2023-01-28T21:56:51.052Z,103169.99
2023-01-28T21:59:30.913Z,103169.61
2023-01-28T22:02:10.973Z,103164.41
2023-01-28T22:04:46.493Z,103167.42
2023-01-28T22:07:20.195Z,103169.64
2023-01-28T22:09:50.899Z,103158.80
2023-01-28T22:12:21.656Z,103162.29
2023-01-28T22:14:51.347Z,103167.12
2023-01-28T22:17:22.397Z,103168.84
2023-01-28T22:19:51.856Z,103167.20
2023-01-28T22:22:22.923Z,103168.10
2023-01-28T22:24:52.267Z,103167.67
2023-01-28T22:27:21.543Z,103172.85
2023-01-28T22:29:51.270Z,103169.41
2023-01-28T22:32:20.479Z,103166.34
2023-01-28T22:34:49.890Z,103167.26
2023-01-28T22:37:19.093Z,103157.73
2023-01-28T22:39:48.378Z,103162.42
2023-01-28T22:42:17.629Z,103160.27
2023-01-28T22:44:47.054Z,103155.11
2023-01-28T22:47:16.249Z,103154.30
2023-01-28T22:49:45.779Z,103152.17
2023-01-28T22:52:15.042Z,103150.88
2023-01-28T22:54:44.369Z,103155.25
2023-01-28T22:57:13.657Z,103147.89
2023-01-28T22:59:48.446Z,103144.38
2023-01-28T23:02:13.930Z,103137.52
2023-01-28T23:04:44.951Z,103138.40
2023-01-28T23:07:14.365Z,103132.34
2023-01-28T23:09:45.254Z,103135.84
2023-01-28T23:12:14.491Z,103135.89
2023-01-28T23:15:01.706Z,103148.45
2023-01-28T23:17:49.092Z,103144.98
2023-01-28T23:20:36.693Z,103135.91
2023-01-28T23:23:24.151Z,103128.49
2023-01-28T23:25:53.387Z,103125.86
2023-01-28T23:28:22.599Z,103128.05
2023-01-28T23:30:52.622Z,103129.83
2023-01-28T23:33:22.115Z,103133.73
2023-01-28T23:35:51.612Z,103126.83
2023-01-28T23:38:20.887Z,103130.30
2023-01-28T23:40:50.350Z,103132.86
2023-01-28T23:43:19.739Z,103128.49
2023-01-28T23:45:48.990Z,103130.21
2023-01-28T23:48:18.413Z,103127.70
2023-01-28T23:50:48.198Z,103131.16
2023-01-28T23:53:17.463Z,103122.54
2023-01-28T23:55:46.689Z,103129.05
2023-01-28T23:58:16.751Z,103126.47
